createdAt,value
2022-08-09T00:30:10.566Z,15.8
2022-08-09T00:40:01.854Z,15.6
2022-08-09T00:49:52.722Z,15.5
2022-08-09T00:59:52.356Z,15.4
2022-08-09T01:09:49.756Z,15.3
2022-08-09T01:20:02.010Z,15.2
2022-08-09T01:29:55.372Z,15.2
2022-08-09T01:39:55.942Z,15.1
2022-08-09T01:49:58.058Z,15
2022-08-09T02:00:00.035Z,14.8
2022-08-09T02:10:03.755Z,14.8
2022-08-09T02:20:03.457Z,14.9
2022-08-09T02:30:05.778Z,15
2022-08-09T02:40:09.351Z,15
2022-08-09T02:50:10.711Z,14.8
2022-08-09T03:00:21.645Z,14.5
2022-08-09T03:20:16.782Z,14.3
2022-08-09T03:30:28.184Z,14.2
2022-08-09T03:40:20.914Z,14
2022-08-09T03:50:27.616Z,13.9
2022-08-09T04:00:25.210Z,13.7
2022-08-09T04:10:28.315Z,13.6
2022-08-09T04:20:30.107Z,13.7
2022-08-09T04:30:32.317Z,13.8
2022-08-09T04:40:36.371Z,13.9
2022-08-09T04:50:37.947Z,14.4
2022-08-09T05:00:38.411Z,15.2
2022-08-09T05:10:40.398Z,15.8
2022-08-09T05:20:42.148Z,16.4
2022-08-09T05:30:47.827Z,16.8
2022-08-09T05:40:50.441Z,17.1
2022-08-09T05:50:56.904Z,16.7
2022-08-09T06:10:53.083Z,17.5
2022-08-09T06:20:56.915Z,17.5
2022-08-09T06:30:57.704Z,18.3
2022-08-09T06:41:00.239Z,17.8
2022-08-09T06:51:04.357Z,17.9
2022-08-09T07:01:04.380Z,18.3
2022-08-09T07:11:06.974Z,19.1
2022-08-09T07:21:08.471Z,19.8
2022-08-09T07:31:11.025Z,20.9
2022-08-09T07:41:13.556Z,20.3
2022-08-09T07:52:02.985Z,20.7
2022-08-09T08:01:17.727Z,21
2022-08-09T08:12:11.721Z,21.9
2022-08-09T08:21:21.372Z,21.6
2022-08-09T08:31:24.536Z,22.2
2022-08-09T08:41:27.066Z,22.2
2022-08-09T08:51:27.366Z,22.9
2022-08-09T08:54:05.746Z,22.9
2022-08-09T09:01:45.098Z,23.8
2022-08-09T09:11:41.551Z,23.5
2022-08-09T09:21:43.843Z,24.2
2022-08-09T09:32:02.030Z,24.4
2022-08-09T09:41:49.544Z,24.5
2022-08-09T09:51:51.424Z,23.8
2022-08-09T10:01:52.351Z,25.5
2022-08-09T10:12:01.547Z,24.7
2022-08-09T10:21:57.288Z,25.5
2022-08-09T10:32:28.469Z,25.4
2022-08-09T10:42:01.995Z,26.3
2022-08-09T11:03:03.376Z,26.3
2022-08-09T11:12:08.618Z,26.4
2022-08-09T11:22:19.006Z,27
2022-08-09T11:32:13.150Z,26.8
2022-08-09T11:42:15.773Z,26.5
2022-08-09T11:52:49.829Z,26.1
2022-08-09T12:02:35.039Z,27.2
2022-08-09T12:12:38.401Z,26.6
2022-08-09T12:22:23.956Z,27.6
2022-08-09T12:32:27.009Z,27.7
2022-08-09T12:42:28.126Z,27.1
2022-08-09T12:52:40.223Z,27.8
2022-08-09T13:02:32.769Z,27.4
2022-08-09T13:12:39.868Z,27.8
2022-08-09T13:23:00.756Z,28.1
2022-08-09T13:32:40.316Z,28.2
2022-08-09T13:42:41.245Z,28
2022-08-09T14:03:02.474Z,28.9
2022-08-09T14:12:47.881Z,28
2022-08-09T14:22:50.079Z,27.8
2022-08-09T14:32:51.906Z,28.4
2022-08-09T14:42:53.584Z,28.2
2022-08-09T14:52:55.808Z,27.8
2022-08-09T15:13:00.118Z,27.7
2022-08-09T15:23:03.246Z,27.6
2022-08-09T15:33:07.198Z,27.5
2022-08-09T15:43:06.633Z,27.6
2022-08-09T15:53:18.629Z,27.6
2022-08-09T16:13:18.848Z,27.6
2022-08-09T16:33:18.051Z,27.1
2022-08-09T16:43:20.857Z,27.1
2022-08-09T16:53:22.219Z,27
2022-08-09T17:03:24.286Z,26.9
2022-08-09T17:13:26.617Z,26.7
2022-08-09T17:23:36.913Z,26.7
2022-08-09T17:33:32.274Z,26.5
2022-08-09T17:43:35.911Z,26.4
2022-08-09T17:53:35.285Z,26.3
2022-08-09T18:03:38.013Z,26
2022-08-09T18:13:54.645Z,25.9
2022-08-09T18:24:11.820Z,25.7
2022-08-09T18:33:48.909Z,25.3
2022-08-09T18:43:53.219Z,25.1
2022-08-09T18:53:56.244Z,24.8
2022-08-09T19:03:54.842Z,24.5
2022-08-09T19:13:52.439Z,24.3
2022-08-09T19:24:33.814Z,24
2022-08-09T19:33:57.302Z,23.6
2022-08-09T19:44:02.303Z,23.1
2022-08-09T19:54:02.100Z,22.8
2022-08-09T20:04:14.409Z,22.7
2022-08-09T20:14:06.232Z,22.6
2022-08-09T20:24:08.304Z,22.3
2022-08-09T20:34:10.849Z,22.1
2022-08-09T20:44:13.438Z,21.9
2022-08-09T20:54:16.955Z,21.7
2022-08-09T21:05:50.112Z,21.5
2022-08-09T21:14:20.327Z,21.3
2022-08-09T21:24:28.737Z,21.1
2022-08-09T21:34:28.921Z,20.9
2022-08-09T21:44:33.657Z,20.8
2022-08-09T21:54:27.787Z,20.6
2022-08-09T22:04:55.194Z,20.6
2022-08-09T22:14:32.765Z,20.4
2022-08-09T22:24:34.447Z,20.2
2022-08-09T22:34:40.414Z,20
2022-08-09T22:44:38.943Z,19.9
2022-08-09T22:54:41.485Z,19.7
2022-08-09T23:04:43.422Z,19.5
2022-08-09T23:14:45.586Z,19.3
2022-08-09T23:24:48.561Z,19.2
2022-08-09T23:34:49.617Z,18.9
2022-08-09T23:44:51.396Z,18.7
2022-08-09T23:54:53.604Z,18.6
